sensor_id;sensor_type;location;lat;lon;timestamp;pressure;altitude;pressure_sealevel;temperature;humidity
53246;BME280;39569;51.090;-1.786;2022-09-09T00:01:54;99609.97;;;23.15;57.63
53246;BME280;39569;51.090;-1.786;2022-09-09T00:04:27;99606.00;;;22.39;59.84
53246;BME280;39569;51.090;-1.786;2022-09-09T00:07:01;99605.81;;;22.20;60.66
53246;BME280;39569;51.090;-1.786;2022-09-09T00:09:32;99601.25;;;22.70;58.96
53246;BME280;39569;51.090;-1.786;2022-09-09T00:12:10;99600.03;;;22.37;60.07
53246;BME280;39569;51.090;-1.786;2022-09-09T00:14:45;99600.91;;;22.81;59.43
53246;BME280;39569;51.090;-1.786;2022-09-09T00:17:23;99602.41;;;22.54;60.13
53246;BME280;39569;51.090;-1.786;2022-09-09T00:19:57;99607.03;;;22.63;59.72
53246;BME280;39569;51.090;-1.786;2022-09-09T00:22:29;99609.78;;;22.58;59.75
53246;BME280;39569;51.090;-1.786;2022-09-09T00:25:02;99604.59;;;22.52;60.22
53246;BME280;39569;51.090;-1.786;2022-09-09T00:27:39;99610.69;;;22.28;60.25
53246;BME280;39569;51.090;-1.786;2022-09-09T00:30:15;99605.16;;;22.48;59.91
53246;BME280;39569;51.090;-1.786;2022-09-09T00:32:46;99603.25;;;22.44;60.12
53246;BME280;39569;51.090;-1.786;2022-09-09T00:35:21;99612.78;;;22.46;60.13
53246;BME280;39569;51.090;-1.786;2022-09-09T00:37:50;99607.97;;;22.87;58.82
53246;BME280;39569;51.090;-1.786;2022-09-09T00:40:23;99610.97;;;22.86;59.00
53246;BME280;39569;51.090;-1.786;2022-09-09T00:42:58;99608.84;;;22.14;60.88
53246;BME280;39569;51.090;-1.786;2022-09-09T00:45:51;99609.91;;;22.82;59.00
53246;BME280;39569;51.090;-1.786;2022-09-09T00:48:22;99616.09;;;22.33;60.14
53246;BME280;39569;51.090;-1.786;2022-09-09T00:50:56;99610.88;;;22.47;59.51
53246;BME280;39569;51.090;-1.786;2022-09-09T00:53:31;99612.84;;;22.31;60.16
53246;BME280;39569;51.090;-1.786;2022-09-09T00:56:11;99612.72;;;21.88;61.48
53246;BME280;39569;51.090;-1.786;2022-09-09T00:58:38;99622.06;;;22.40;60.37
53246;BME280;39569;51.090;-1.786;2022-09-09T01:01:07;99628.84;;;22.58;59.49
53246;BME280;39569;51.090;-1.786;2022-09-09T01:03:42;99626.91;;;23.07;58.11
53246;BME280;39569;51.090;-1.786;2022-09-09T01:06:16;99626.03;;;22.73;59.51
53246;BME280;39569;51.090;-1.786;2022-09-09T01:09:12;99624.22;;;22.48;60.03
53246;BME280;39569;51.090;-1.786;2022-09-09T01:11:51;99626.50;;;22.21;60.36
53246;BME280;39569;51.090;-1.786;2022-09-09T01:14:39;99630.47;;;22.44;59.85
53246;BME280;39569;51.090;-1.786;2022-09-09T01:17:12;99626.25;;;22.82;58.74
53246;BME280;39569;51.090;-1.786;2022-09-09T01:20:00;99632.66;;;22.42;60.63
53246;BME280;39569;51.090;-1.786;2022-09-09T01:22:35;99637.31;;;22.36;60.51
53246;BME280;39569;51.090;-1.786;2022-09-09T01:25:18;99643.88;;;22.30;60.22
53246;BME280;39569;51.090;-1.786;2022-09-09T01:27:49;99646.66;;;22.84;59.19
53246;BME280;39569;51.090;-1.786;2022-09-09T01:30:18;99649.50;;;22.54;59.95
53246;BME280;39569;51.090;-1.786;2022-09-09T01:32:46;99643.09;;;22.15;61.13
53246;BME280;39569;51.090;-1.786;2022-09-09T01:35:21;99653.47;;;22.03;61.09
53246;BME280;39569;51.090;-1.786;2022-09-09T01:37:52;99645.47;;;22.41;59.92
53246;BME280;39569;51.090;-1.786;2022-09-09T01:40:19;99649.09;;;22.12;60.94
53246;BME280;39569;51.090;-1.786;2022-09-09T01:42:48;99649.41;;;21.55;63.13
53246;BME280;39569;51.090;-1.786;2022-09-09T01:45:15;99647.19;;;22.07;61.29
53246;BME280;39569;51.090;-1.786;2022-09-09T01:47:42;99648.75;;;22.33;60.96
53246;BME280;39569;51.090;-1.786;2022-09-09T01:50:10;99661.94;;;21.86;62.24
53246;BME280;39569;51.090;-1.786;2022-09-09T01:52:39;99660.75;;;22.32;60.99
53246;BME280;39569;51.090;-1.786;2022-09-09T01:55:07;99662.16;;;22.89;59.23
53246;BME280;39569;51.090;-1.786;2022-09-09T01:57:40;99665.59;;;22.56;60.29
53246;BME280;39569;51.090;-1.786;2022-09-09T02:00:12;99660.53;;;22.09;61.60
53246;BME280;39569;51.090;-1.786;2022-09-09T02:02:45;99670.34;;;21.75;62.52
53246;BME280;39569;51.090;-1.786;2022-09-09T02:05:25;99671.97;;;22.06;61.35
53246;BME280;39569;51.090;-1.786;2022-09-09T02:08:00;99674.97;;;21.79;62.58
53246;BME280;39569;51.090;-1.786;2022-09-09T02:10:32;99677.88;;;22.33;60.72
53246;BME280;39569;51.090;-1.786;2022-09-09T02:13:04;99682.09;;;22.74;59.37
53246;BME280;39569;51.090;-1.786;2022-09-09T02:15:38;99683.00;;;22.44;60.87
53246;BME280;39569;51.090;-1.786;2022-09-09T02:18:10;99686.03;;;22.33;60.24
53246;BME280;39569;51.090;-1.786;2022-09-09T02:20:39;99681.41;;;22.43;59.70
53246;BME280;39569;51.090;-1.786;2022-09-09T02:23:08;99681.88;;;22.66;59.12
53246;BME280;39569;51.090;-1.786;2022-09-09T02:25:39;99676.19;;;22.52;59.71
53246;BME280;39569;51.090;-1.786;2022-09-09T02:28:09;99682.44;;;22.58;59.82
53246;BME280;39569;51.090;-1.786;2022-09-09T02:30:40;99679.16;;;22.66;59.12
53246;BME280;39569;51.090;-1.786;2022-09-09T02:33:10;99677.91;;;22.28;59.64
53246;BME280;39569;51.090;-1.786;2022-09-09T02:35:39;99685.84;;;21.79;60.91
53246;BME280;39569;51.090;-1.786;2022-09-09T02:38:12;99687.75;;;21.99;60.41
53246;BME280;39569;51.090;-1.786;2022-09-09T02:40:40;99698.59;;;22.09;59.99
53246;BME280;39569;51.090;-1.786;2022-09-09T02:43:06;99692.31;;;22.33;59.15
53246;BME280;39569;51.090;-1.786;2022-09-09T02:45:38;99704.56;;;22.21;59.06
53246;BME280;39569;51.090;-1.786;2022-09-09T02:48:14;99708.13;;;22.21;59.39
53246;BME280;39569;51.090;-1.786;2022-09-09T02:50:47;99710.28;;;22.24;59.54
53246;BME280;39569;51.090;-1.786;2022-09-09T02:53:24;99708.13;;;21.96;61.41
53246;BME280;39569;51.090;-1.786;2022-09-09T02:56:00;99704.84;;;22.14;59.78
53246;BME280;39569;51.090;-1.786;2022-09-09T02:58:30;99702.97;;;22.10;59.37
53246;BME280;39569;51.090;-1.786;2022-09-09T03:00:58;99706.50;;;21.65;60.74
53246;BME280;39569;51.090;-1.786;2022-09-09T03:03:27;99720.34;;;21.43;61.89
53246;BME280;39569;51.090;-1.786;2022-09-09T03:05:55;99714.94;;;21.89;59.83
53246;BME280;39569;51.090;-1.786;2022-09-09T03:08:23;99718.69;;;21.37;61.23
53246;BME280;39569;51.090;-1.786;2022-09-09T03:10:50;99720.13;;;21.80;61.23
53246;BME280;39569;51.090;-1.786;2022-09-09T03:13:19;99711.13;;;21.70;60.86
53246;BME280;39569;51.090;-1.786;2022-09-09T03:15:47;99715.75;;;21.99;60.47
53246;BME280;39569;51.090;-1.786;2022-09-09T03:18:14;99718.19;;;22.06;59.37
53246;BME280;39569;51.090;-1.786;2022-09-09T03:20:43;99715.69;;;22.39;58.41
53246;BME280;39569;51.090;-1.786;2022-09-09T03:23:11;99719.56;;;22.08;59.16
53246;BME280;39569;51.090;-1.786;2022-09-09T03:25:39;99715.75;;;21.89;59.54
53246;BME280;39569;51.090;-1.786;2022-09-09T03:28:06;99722.50;;;21.46;60.66
53246;BME280;39569;51.090;-1.786;2022-09-09T03:30:32;99724.09;;;21.27;61.43
53246;BME280;39569;51.090;-1.786;2022-09-09T03:32:59;99729.91;;;21.91;59.62
53246;BME280;39569;51.090;-1.786;2022-09-09T03:35:26;99728.25;;;22.00;58.49
53246;BME280;39569;51.090;-1.786;2022-09-09T03:37:54;99738.00;;;21.66;60.29
53246;BME280;39569;51.090;-1.786;2022-09-09T03:40:21;99728.53;;;21.89;59.36
53246;BME280;39569;51.090;-1.786;2022-09-09T03:42:48;99731.25;;;21.84;59.67
53246;BME280;39569;51.090;-1.786;2022-09-09T03:45:15;99735.28;;;22.41;58.31
53246;BME280;39569;51.090;-1.786;2022-09-09T03:47:42;99741.56;;;22.32;57.44
53246;BME280;39569;51.090;-1.786;2022-09-09T03:50:09;99745.41;;;22.16;58.04
53246;BME280;39569;51.090;-1.786;2022-09-09T03:52:37;99746.16;;;22.46;57.34
53246;BME280;39569;51.090;-1.786;2022-09-09T03:55:06;99746.47;;;22.05;58.41
53246;BME280;39569;51.090;-1.786;2022-09-09T03:57:34;99754.91;;;22.18;58.54
53246;BME280;39569;51.090;-1.786;2022-09-09T04:00:02;99749.69;;;21.51;60.63
53246;BME280;39569;51.090;-1.786;2022-09-09T04:02:30;99752.72;;;21.75;59.94
53246;BME280;39569;51.090;-1.786;2022-09-09T04:04:57;99754.03;;;21.63;59.42
53246;BME280;39569;51.090;-1.786;2022-09-09T04:07:25;99742.94;;;22.09;58.79
53246;BME280;39569;51.090;-1.786;2022-09-09T04:09:52;99750.53;;;22.12;58.81
53246;BME280;39569;51.090;-1.786;2022-09-09T04:12:21;99757.34;;;22.25;58.35
53246;BME280;39569;51.090;-1.786;2022-09-09T04:14:48;99754.91;;;22.13;57.62
53246;BME280;39569;51.090;-1.786;2022-09-09T04:17:14;99757.34;;;22.05;58.54
53246;BME280;39569;51.090;-1.786;2022-09-09T04:19:41;99765.00;;;22.03;58.91
53246;BME280;39569;51.090;-1.786;2022-09-09T04:22:08;99764.03;;;21.27;61.53
53246;BME280;39569;51.090;-1.786;2022-09-09T04:24:35;99758.38;;;21.48;60.47
53246;BME280;39569;51.090;-1.786;2022-09-09T04:27:02;99755.16;;;21.77;59.22
53246;BME280;39569;51.090;-1.786;2022-09-09T04:29:30;99751.84;;;21.34;60.26
53246;BME280;39569;51.090;-1.786;2022-09-09T04:31:57;99749.19;;;22.00;58.98
53246;BME280;39569;51.090;-1.786;2022-09-09T04:34:24;99752.97;;;21.64;59.78
53246;BME280;39569;51.090;-1.786;2022-09-09T04:36:51;99761.94;;;21.54;60.11
53246;BME280;39569;51.090;-1.786;2022-09-09T04:39:18;99766.59;;;22.09;58.98
53246;BME280;39569;51.090;-1.786;2022-09-09T04:41:45;99769.31;;;21.79;59.45
53246;BME280;39569;51.090;-1.786;2022-09-09T04:44:12;99768.53;;;22.08;58.95
53246;BME280;39569;51.090;-1.786;2022-09-09T04:46:40;99774.97;;;21.57;60.77
53246;BME280;39569;51.090;-1.786;2022-09-09T04:49:07;99769.31;;;22.24;58.46
53246;BME280;39569;51.090;-1.786;2022-09-09T04:51:34;99778.25;;;22.49;58.20
53246;BME280;39569;51.090;-1.786;2022-09-09T04:54:00;99786.16;;;22.51;57.92
53246;BME280;39569;51.090;-1.786;2022-09-09T04:56:27;99785.38;;;22.15;59.13
53246;BME280;39569;51.090;-1.786;2022-09-09T04:58:54;99797.06;;;22.21;58.18
53246;BME280;39569;51.090;-1.786;2022-09-09T05:01:21;99793.81;;;22.04;58.98
53246;BME280;39569;51.090;-1.786;2022-09-09T05:03:50;99798.72;;;21.92;59.63
53246;BME280;39569;51.090;-1.786;2022-09-09T05:06:20;99797.56;;;21.68;60.23
53246;BME280;39569;51.090;-1.786;2022-09-09T05:08:47;99801.16;;;21.98;59.18
53246;BME280;39569;51.090;-1.786;2022-09-09T05:11:20;99808.22;;;22.04;59.11
53246;BME280;39569;51.090;-1.786;2022-09-09T05:13:47;99806.31;;;22.20;58.41
53246;BME280;39569;51.090;-1.786;2022-09-09T05:16:15;99805.78;;;22.28;58.91
53246;BME280;39569;51.090;-1.786;2022-09-09T05:18:43;99814.47;;;22.50;58.14
53246;BME280;39569;51.090;-1.786;2022-09-09T05:21:14;99801.41;;;22.57;57.78
53246;BME280;39569;51.090;-1.786;2022-09-09T05:23:41;99813.66;;;22.04;58.41
53246;BME280;39569;51.090;-1.786;2022-09-09T05:26:12;99817.38;;;21.58;60.25
53246;BME280;39569;51.090;-1.786;2022-09-09T05:28:39;99821.03;;;22.14;59.10
53246;BME280;39569;51.090;-1.786;2022-09-09T05:31:08;99821.00;;;21.99;59.44
53246;BME280;39569;51.090;-1.786;2022-09-09T05:33:36;99816.38;;;21.84;59.38
53246;BME280;39569;51.090;-1.786;2022-09-09T05:36:07;99821.00;;;21.84;59.46
53246;BME280;39569;51.090;-1.786;2022-09-09T05:38:37;99821.53;;;21.96;59.25
53246;BME280;39569;51.090;-1.786;2022-09-09T05:41:05;99829.41;;;21.87;59.55
53246;BME280;39569;51.090;-1.786;2022-09-09T05:43:32;99828.75;;;21.45;60.38
53246;BME280;39569;51.090;-1.786;2022-09-09T05:46:02;99835.63;;;21.78;59.10
53246;BME280;39569;51.090;-1.786;2022-09-09T05:48:30;99838.84;;;21.60;60.47
53246;BME280;39569;51.090;-1.786;2022-09-09T05:50:58;99830.94;;;21.48;59.82
53246;BME280;39569;51.090;-1.786;2022-09-09T05:53:24;99828.81;;;21.60;59.24
53246;BME280;39569;51.090;-1.786;2022-09-09T05:56:00;99833.34;;;21.39;60.31
53246;BME280;39569;51.090;-1.786;2022-09-09T05:58:29;99836.78;;;21.20;60.52
53246;BME280;39569;51.090;-1.786;2022-09-09T06:01:01;99827.25;;;21.07;60.99
53246;BME280;39569;51.090;-1.786;2022-09-09T06:03:28;99831.34;;;21.10;60.71
53246;BME280;39569;51.090;-1.786;2022-09-09T06:05:59;99839.16;;;21.01;61.03
53246;BME280;39569;51.090;-1.786;2022-09-09T06:08:26;99847.44;;;21.26;59.62
53246;BME280;39569;51.090;-1.786;2022-09-09T06:10:53;99844.91;;;21.05;60.48
53246;BME280;39569;51.090;-1.786;2022-09-09T06:13:23;99844.50;;;20.91;60.65
53246;BME280;39569;51.090;-1.786;2022-09-09T06:15:50;99850.31;;;20.63;61.67
53246;BME280;39569;51.090;-1.786;2022-09-09T06:18:17;99846.66;;;20.89;60.58
53246;BME280;39569;51.090;-1.786;2022-09-09T06:20:53;99856.66;;;20.79;60.99
53246;BME280;39569;51.090;-1.786;2022-09-09T06:23:20;99859.41;;;20.84;60.29
53246;BME280;39569;51.090;-1.786;2022-09-09T06:25:47;99869.94;;;20.75;60.59
53246;BME280;39569;51.090;-1.786;2022-09-09T06:28:14;99873.00;;;20.47;60.89
53246;BME280;39569;51.090;-1.786;2022-09-09T06:30:43;99871.88;;;20.43;60.85
53246;BME280;39569;51.090;-1.786;2022-09-09T06:33:10;99871.78;;;20.33;61.01
53246;BME280;39569;51.090;-1.786;2022-09-09T06:35:36;99863.59;;;20.65;60.12
53246;BME280;39569;51.090;-1.786;2022-09-09T06:38:03;99876.72;;;20.14;60.92
53246;BME280;39569;51.090;-1.786;2022-09-09T06:40:31;99878.88;;;20.39;61.21
53246;BME280;39569;51.090;-1.786;2022-09-09T06:42:59;99882.63;;;21.63;58.06
53246;BME280;39569;51.090;-1.786;2022-09-09T06:45:27;99890.06;;;21.26;59.54
53246;BME280;39569;51.090;-1.786;2022-09-09T06:47:56;99886.44;;;21.72;57.50
53246;BME280;39569;51.090;-1.786;2022-09-09T06:50:23;99886.69;;;21.61;56.62
53246;BME280;39569;51.090;-1.786;2022-09-09T06:52:50;99883.38;;;21.43;58.99
53246;BME280;39569;51.090;-1.786;2022-09-09T06:55:17;99893.66;;;21.36;57.77
53246;BME280;39569;51.090;-1.786;2022-09-09T06:57:44;99890.31;;;21.19;57.83
53246;BME280;39569;51.090;-1.786;2022-09-09T07:00:12;99893.06;;;21.24;58.78
53246;BME280;39569;51.090;-1.786;2022-09-09T07:02:39;99889.00;;;22.09;55.97
53246;BME280;39569;51.090;-1.786;2022-09-09T07:05:08;99888.53;;;21.50;57.81
53246;BME280;39569;51.090;-1.786;2022-09-09T07:07:36;99888.84;;;21.59;57.85
53246;BME280;39569;51.090;-1.786;2022-09-09T07:10:04;99897.72;;;22.11;57.54
53246;BME280;39569;51.090;-1.786;2022-09-09T07:12:31;99898.78;;;22.00;55.93
53246;BME280;39569;51.090;-1.786;2022-09-09T07:14:57;99901.50;;;21.33;57.84
53246;BME280;39569;51.090;-1.786;2022-09-09T07:17:24;99900.88;;;21.73;57.28
53246;BME280;39569;51.090;-1.786;2022-09-09T07:19:51;99894.41;;;21.84;56.32
53246;BME280;39569;51.090;-1.786;2022-09-09T07:22:19;99904.22;;;22.00;56.88
53246;BME280;39569;51.090;-1.786;2022-09-09T07:24:46;99905.63;;;22.22;55.63
53246;BME280;39569;51.090;-1.786;2022-09-09T07:27:14;99908.38;;;22.37;57.18
53246;BME280;39569;51.090;-1.786;2022-09-09T07:29:41;99914.38;;;22.70;55.90
53246;BME280;39569;51.090;-1.786;2022-09-09T07:32:08;99914.63;;;22.43;54.64
53246;BME280;39569;51.090;-1.786;2022-09-09T07:34:35;99926.00;;;22.20;55.98
53246;BME280;39569;51.090;-1.786;2022-09-09T07:37:02;99919.75;;;23.30;53.73
53246;BME280;39569;51.090;-1.786;2022-09-09T07:39:30;99919.25;;;23.08;53.74
53246;BME280;39569;51.090;-1.786;2022-09-09T07:41:57;99928.88;;;23.64;53.35
53246;BME280;39569;51.090;-1.786;2022-09-09T07:44:24;99928.59;;;23.71;53.08
53246;BME280;39569;51.090;-1.786;2022-09-09T07:46:52;99930.53;;;23.65;52.26
53246;BME280;39569;51.090;-1.786;2022-09-09T07:49:19;99938.94;;;23.79;51.82
53246;BME280;39569;51.090;-1.786;2022-09-09T07:51:47;99939.72;;;23.79;50.94
53246;BME280;39569;51.090;-1.786;2022-09-09T07:54:16;99935.63;;;24.69;48.99
53246;BME280;39569;51.090;-1.786;2022-09-09T07:56:49;99932.09;;;25.26;48.05
53246;BME280;39569;51.090;-1.786;2022-09-09T07:59:17;99932.13;;;26.34;46.65
53246;BME280;39569;51.090;-1.786;2022-09-09T08:01:45;99936.66;;;26.76;45.71
53246;BME280;39569;51.090;-1.786;2022-09-09T08:04:15;99939.59;;;26.47;46.64
53246;BME280;39569;51.090;-1.786;2022-09-09T08:06:45;99946.66;;;27.31;43.00
53246;BME280;39569;51.090;-1.786;2022-09-09T08:09:12;99953.72;;;27.18;43.52
53246;BME280;39569;51.090;-1.786;2022-09-09T08:11:40;99944.31;;;29.08;39.85
53246;BME280;39569;51.090;-1.786;2022-09-09T08:14:08;99953.78;;;27.46;40.87
53246;BME280;39569;51.090;-1.786;2022-09-09T08:16:37;99951.63;;;28.10;41.24
53246;BME280;39569;51.090;-1.786;2022-09-09T08:19:07;99953.09;;;28.30;38.67
53246;BME280;39569;51.090;-1.786;2022-09-09T08:21:35;99955.31;;;29.08;38.32
53246;BME280;39569;51.090;-1.786;2022-09-09T08:24:04;99960.91;;;30.12;37.00
53246;BME280;39569;51.090;-1.786;2022-09-09T08:26:33;99950.06;;;30.07;37.19
53246;BME280;39569;51.090;-1.786;2022-09-09T08:29:01;99957.91;;;30.90;34.43
53246;BME280;39569;51.090;-1.786;2022-09-09T08:31:34;99954.44;;;31.19;35.11
53246;BME280;39569;51.090;-1.786;2022-09-09T08:34:01;99962.63;;;29.74;36.43
53246;BME280;39569;51.090;-1.786;2022-09-09T08:36:30;99964.22;;;30.31;37.59
53246;BME280;39569;51.090;-1.786;2022-09-09T08:38:59;99964.50;;;29.26;37.37
53246;BME280;39569;51.090;-1.786;2022-09-09T08:41:51;99960.66;;;30.99;33.27
53246;BME280;39569;51.090;-1.786;2022-09-09T08:44:35;99955.41;;;31.99;34.77
53246;BME280;39569;51.090;-1.786;2022-09-09T08:47:09;99958.22;;;33.26;31.91
53246;BME280;39569;51.090;-1.786;2022-09-09T08:49:55;99962.63;;;30.56;36.08
53246;BME280;39569;51.090;-1.786;2022-09-09T08:52:29;99967.47;;;31.85;34.49
53246;BME280;39569;51.090;-1.786;2022-09-09T08:55:01;99974.63;;;30.60;34.84
53246;BME280;39569;51.090;-1.786;2022-09-09T08:57:30;99977.66;;;28.13;39.32
53246;BME280;39569;51.090;-1.786;2022-09-09T08:59:58;99981.22;;;27.46;39.68
53246;BME280;39569;51.090;-1.786;2022-09-09T09:02:32;99986.09;;;27.76;39.66
53246;BME280;39569;51.090;-1.786;2022-09-09T09:05:13;99994.53;;;27.52;40.25
53246;BME280;39569;51.090;-1.786;2022-09-09T09:07:57;99995.69;;;25.65;42.50
53246;BME280;39569;51.090;-1.786;2022-09-09T09:10:36;100016.00;;;25.59;43.63
53246;BME280;39569;51.090;-1.786;2022-09-09T09:13:12;100010.81;;;26.47;41.47
53246;BME280;39569;51.090;-1.786;2022-09-09T09:15:41;100007.38;;;26.37;43.25
53246;BME280;39569;51.090;-1.786;2022-09-09T09:18:12;100018.84;;;25.96;42.38
53246;BME280;39569;51.090;-1.786;2022-09-09T09:20:49;100018.78;;;26.25;42.19
53246;BME280;39569;51.090;-1.786;2022-09-09T09:23:22;100021.91;;;26.37;42.36
53246;BME280;39569;51.090;-1.786;2022-09-09T09:25:51;100028.59;;;25.60;43.81
53246;BME280;39569;51.090;-1.786;2022-09-09T09:28:22;100025.28;;;26.71;42.50
53246;BME280;39569;51.090;-1.786;2022-09-09T09:30:53;100026.31;;;25.91;42.42
53246;BME280;39569;51.090;-1.786;2022-09-09T09:33:27;100032.53;;;25.73;42.28
53246;BME280;39569;51.090;-1.786;2022-09-09T09:35:55;100031.16;;;26.41;42.48
53246;BME280;39569;51.090;-1.786;2022-09-09T09:38:26;100026.50;;;26.60;42.60
53246;BME280;39569;51.090;-1.786;2022-09-09T09:40:55;100032.56;;;26.94;42.05
53246;BME280;39569;51.090;-1.786;2022-09-09T09:43:25;100039.56;;;27.51;41.90
53246;BME280;39569;51.090;-1.786;2022-09-09T09:45:53;100046.41;;;27.67;41.19
53246;BME280;39569;51.090;-1.786;2022-09-09T09:48:20;100050.72;;;26.90;42.46
53246;BME280;39569;51.090;-1.786;2022-09-09T09:50:51;100044.25;;;26.63;43.71
53246;BME280;39569;51.090;-1.786;2022-09-09T09:53:25;100056.13;;;26.40;44.61
53246;BME280;39569;51.090;-1.786;2022-09-09T09:55:57;100062.41;;;26.59;44.11
53246;BME280;39569;51.090;-1.786;2022-09-09T09:58:26;100065.81;;;26.08;45.45
53246;BME280;39569;51.090;-1.786;2022-09-09T10:00:54;100064.09;;;25.65;45.77
53246;BME280;39569;51.090;-1.786;2022-09-09T10:03:24;100067.47;;;25.81;46.34
53246;BME280;39569;51.090;-1.786;2022-09-09T10:05:53;100068.53;;;26.08;45.74
53246;BME280;39569;51.090;-1.786;2022-09-09T10:08:22;100067.59;;;26.42;45.13
53246;BME280;39569;51.090;-1.786;2022-09-09T10:11:02;100080.41;;;25.99;45.54
53246;BME280;39569;51.090;-1.786;2022-09-09T10:13:39;100080.97;;;25.10;47.39
53246;BME280;39569;51.090;-1.786;2022-09-09T10:16:33;100078.66;;;24.93;46.93
53246;BME280;39569;51.090;-1.786;2022-09-09T10:19:08;100079.22;;;25.58;46.26
53246;BME280;39569;51.090;-1.786;2022-09-09T10:21:57;100082.63;;;25.45;46.61
53246;BME280;39569;51.090;-1.786;2022-09-09T10:27:20;100084.78;;;26.23;46.08
53246;BME280;39569;51.090;-1.786;2022-09-09T10:30:03;100090.53;;;25.98;46.05
53246;BME280;39569;51.090;-1.786;2022-09-09T10:32:40;100087.56;;;25.95;46.89
53246;BME280;39569;51.090;-1.786;2022-09-09T10:35:24;100094.00;;;25.23;48.63
53246;BME280;39569;51.090;-1.786;2022-09-09T10:38:05;100094.44;;;25.35;49.37
53246;BME280;39569;51.090;-1.786;2022-09-09T10:40:39;100094.28;;;26.31;47.13
53246;BME280;39569;51.090;-1.786;2022-09-09T10:43:17;100098.38;;;26.10;47.74
53246;BME280;39569;51.090;-1.786;2022-09-09T10:45:57;100093.84;;;26.85;47.28
53246;BME280;39569;51.090;-1.786;2022-09-09T10:48:31;100098.63;;;27.62;46.36
53246;BME280;39569;51.090;-1.786;2022-09-09T10:51:17;100092.00;;;28.36;42.86
53246;BME280;39569;51.090;-1.786;2022-09-09T10:53:57;100101.16;;;28.04;43.71
53246;BME280;39569;51.090;-1.786;2022-09-09T10:56:29;100099.91;;;27.00;46.59
53246;BME280;39569;51.090;-1.786;2022-09-09T10:58:59;100112.31;;;26.56;46.66
53246;BME280;39569;51.090;-1.786;2022-09-09T11:01:31;100115.50;;;26.20;46.09
53246;BME280;39569;51.090;-1.786;2022-09-09T11:04:03;100106.34;;;26.30;45.28
53246;BME280;39569;51.090;-1.786;2022-09-09T11:06:35;100116.34;;;25.92;45.96
53246;BME280;39569;51.090;-1.786;2022-09-09T11:09:05;100119.41;;;26.14;45.96
53246;BME280;39569;51.090;-1.786;2022-09-09T11:11:36;100111.16;;;25.28;46.36
53246;BME280;39569;51.090;-1.786;2022-09-09T11:14:09;100126.03;;;25.12;48.25
53246;BME280;39569;51.090;-1.786;2022-09-09T11:16:41;100118.81;;;24.29;48.78
53246;BME280;39569;51.090;-1.786;2022-09-09T11:19:16;100123.34;;;26.27;46.29
53246;BME280;39569;51.090;-1.786;2022-09-09T11:21:48;100129.25;;;25.87;46.10
53246;BME280;39569;51.090;-1.786;2022-09-09T11:24:22;100119.78;;;26.74;46.41
53246;BME280;39569;51.090;-1.786;2022-09-09T11:26:53;100131.34;;;27.59;44.75
53246;BME280;39569;51.090;-1.786;2022-09-09T11:29:41;100126.41;;;28.47;42.59
53246;BME280;39569;51.090;-1.786;2022-09-09T11:32:27;100124.88;;;27.68;45.66
53246;BME280;39569;51.090;-1.786;2022-09-09T11:35:05;100126.50;;;27.69;43.73
53246;BME280;39569;51.090;-1.786;2022-09-09T11:40:30;100113.59;;;27.70;43.52
53246;BME280;39569;51.090;-1.786;2022-09-09T11:43:02;100116.06;;;26.83;46.84
53246;BME280;39569;51.090;-1.786;2022-09-09T11:45:33;100124.06;;;26.80;46.19
53246;BME280;39569;51.090;-1.786;2022-09-09T11:48:02;100121.19;;;26.71;44.56
53246;BME280;39569;51.090;-1.786;2022-09-09T11:50:34;100122.22;;;26.94;44.88
53246;BME280;39569;51.090;-1.786;2022-09-09T11:53:17;100127.16;;;25.50;46.71
53246;BME280;39569;51.090;-1.786;2022-09-09T11:56:09;100137.88;;;25.37;47.13
53246;BME280;39569;51.090;-1.786;2022-09-09T11:58:41;100141.34;;;25.52;45.95
53246;BME280;39569;51.090;-1.786;2022-09-09T12:01:30;100146.09;;;25.42;47.22
53246;BME280;39569;51.090;-1.786;2022-09-09T12:07:04;100138.38;;;26.95;45.84
53246;BME280;39569;51.090;-1.786;2022-09-09T12:09:38;100137.66;;;25.95;47.17
53246;BME280;39569;51.090;-1.786;2022-09-09T12:12:29;100146.47;;;26.63;45.42
53246;BME280;39569;51.090;-1.786;2022-09-09T12:15:16;100147.19;;;27.11;45.46
53246;BME280;39569;51.090;-1.786;2022-09-09T12:17:47;100146.13;;;27.26;46.50
53246;BME280;39569;51.090;-1.786;2022-09-09T12:20:18;100143.28;;;27.36;44.83
53246;BME280;39569;51.090;-1.786;2022-09-09T12:23:17;100143.38;;;27.95;44.61
53246;BME280;39569;51.090;-1.786;2022-09-09T12:26:23;100142.56;;;27.44;45.26
53246;BME280;39569;51.090;-1.786;2022-09-09T12:29:01;100150.97;;;27.15;44.83
53246;BME280;39569;51.090;-1.786;2022-09-09T12:31:35;100151.88;;;28.53;42.55
53246;BME280;39569;51.090;-1.786;2022-09-09T12:34:10;100147.03;;;28.04;43.25
53246;BME280;39569;51.090;-1.786;2022-09-09T12:36:38;100161.50;;;27.27;44.88
53246;BME280;39569;51.090;-1.786;2022-09-09T12:39:15;100150.69;;;27.67;44.04
53246;BME280;39569;51.090;-1.786;2022-09-09T12:41:51;100151.16;;;27.88;41.26
53246;BME280;39569;51.090;-1.786;2022-09-09T12:44:23;100138.47;;;28.87;39.61
53246;BME280;39569;51.090;-1.786;2022-09-09T12:46:51;100144.16;;;30.23;37.59
53246;BME280;39569;51.090;-1.786;2022-09-09T12:49:29;100147.78;;;30.32;38.30
53246;BME280;39569;51.090;-1.786;2022-09-09T12:52:02;100140.34;;;29.14;39.60
53246;BME280;39569;51.090;-1.786;2022-09-09T12:54:31;100153.56;;;27.76;42.12
53246;BME280;39569;51.090;-1.786;2022-09-09T12:56:58;100147.03;;;27.72;42.36
53246;BME280;39569;51.090;-1.786;2022-09-09T12:59:35;100141.56;;;27.21;43.17
53246;BME280;39569;51.090;-1.786;2022-09-09T13:02:02;100143.72;;;27.05;43.64
53246;BME280;39569;51.090;-1.786;2022-09-09T13:04:29;100140.94;;;28.07;42.76
53246;BME280;39569;51.090;-1.786;2022-09-09T13:07:05;100140.38;;;27.91;42.04
53246;BME280;39569;51.090;-1.786;2022-09-09T13:09:35;100148.03;;;28.89;41.18
53246;BME280;39569;51.090;-1.786;2022-09-09T13:12:04;100151.09;;;27.93;42.94
53246;BME280;39569;51.090;-1.786;2022-09-09T13:14:35;100158.75;;;28.23;43.16
53246;BME280;39569;51.090;-1.786;2022-09-09T13:17:05;100152.06;;;27.51;45.09
53246;BME280;39569;51.090;-1.786;2022-09-09T13:19:35;100160.34;;;26.48;47.19